createdAt,value
2023-07-18T01:41:04.805Z,101427.00
2023-07-18T01:43:31.637Z,101417.00
2023-07-18T01:46:00.030Z,101416.00
2023-07-18T01:48:27.583Z,101407.00
2023-07-18T01:50:54.650Z,101413.00
2023-07-18T01:53:21.472Z,101409.00
2023-07-18T01:55:48.243Z,101408.00
2023-07-18T01:58:15.064Z,101408.00
2023-07-18T02:00:41.923Z,101414.00
2023-07-18T02:03:08.942Z,101415.00
2023-07-18T02:05:35.876Z,101421.00
2023-07-18T02:08:02.743Z,101416.00
2023-07-18T02:10:29.604Z,101416.00
2023-07-18T02:13:02.895Z,101414.00
2023-07-18T02:15:30.226Z,101408.00
2023-07-18T02:17:57.300Z,101404.00
2023-07-18T02:20:24.373Z,101415.00
2023-07-18T02:22:51.494Z,101410.00
2023-07-18T02:25:19.304Z,101408.00
2023-07-18T02:27:46.580Z,101409.00
2023-07-18T02:30:14.030Z,101410.00
2023-07-18T02:32:41.706Z,101417.00
2023-07-18T02:35:09.946Z,101412.00
2023-07-18T02:37:37.420Z,101401.00
2023-07-18T02:40:13.882Z,101415.00
2023-07-18T02:42:40.700Z,101415.00
2023-07-18T02:45:10.205Z,101408.00
2023-07-18T02:47:38.084Z,101414.00
2023-07-18T02:50:05.610Z,101410.00
2023-07-18T02:52:32.792Z,101415.00
2023-07-18T02:54:59.791Z,101405.00
2023-07-18T02:57:26.749Z,101405.00
2023-07-18T02:59:53.633Z,101411.00
2023-07-18T03:02:21.986Z,101408.00
2023-07-18T03:04:49.130Z,101410.00
2023-07-18T03:07:18.840Z,101413.00
2023-07-18T03:09:46.464Z,101412.00
2023-07-18T03:12:13.473Z,101409.00
2023-07-18T03:14:40.666Z,101413.00
2023-07-18T03:17:07.635Z,101406.00
2023-07-18T03:19:34.486Z,101415.00
2023-07-18T03:22:01.363Z,101417.00
2023-07-18T03:24:28.167Z,101420.00
2023-07-18T03:26:54.983Z,101415.00
2023-07-18T03:29:21.790Z,101405.00
2023-07-18T03:31:48.678Z,101399.00
2023-07-18T03:34:15.480Z,101419.00
2023-07-18T03:36:42.311Z,101409.00
2023-07-18T03:39:09.129Z,101403.00
2023-07-18T03:41:35.952Z,101413.00
2023-07-18T03:44:02.752Z,101410.00
2023-07-18T03:46:29.616Z,101410.00
2023-07-18T03:48:56.507Z,101408.00
2023-07-18T03:51:24.297Z,101406.00
2023-07-18T03:53:55.501Z,101404.00
2023-07-18T03:56:22.799Z,101407.00
2023-07-18T03:58:51.545Z,101412.00
2023-07-18T04:01:20.589Z,101411.00
2023-07-18T04:03:47.736Z,101411.00
2023-07-18T04:06:20.587Z,101411.00
2023-07-18T04:08:47.526Z,101415.00
2023-07-18T04:11:14.458Z,101410.00
2023-07-18T04:13:41.487Z,101401.00
2023-07-18T04:16:08.554Z,101409.00
2023-07-18T04:18:35.600Z,101403.00
2023-07-18T04:21:03.854Z,101403.00
2023-07-18T04:23:31.209Z,101414.00
2023-07-18T04:26:03.362Z,101413.00
2023-07-18T04:28:37.991Z,101410.00
2023-07-18T04:31:05.071Z,101418.00
2023-07-18T04:33:36.615Z,101423.00
2023-07-18T04:36:05.449Z,101413.00
2023-07-18T04:38:32.333Z,101420.00
2023-07-18T04:40:59.600Z,101414.00
2023-07-18T04:43:26.420Z,101423.00
2023-07-18T04:45:53.236Z,101420.00
2023-07-18T04:48:20.642Z,101421.00
2023-07-18T04:50:51.501Z,101425.00
2023-07-18T04:53:18.500Z,101420.00
2023-07-18T04:55:45.793Z,101417.00
2023-07-18T04:58:12.626Z,101415.00
2023-07-18T05:00:39.437Z,101425.00
2023-07-18T05:03:06.727Z,101431.00
2023-07-18T05:05:33.888Z,101429.00
2023-07-18T05:08:01.038Z,101424.00
2023-07-18T05:10:28.003Z,101426.00
2023-07-18T05:12:55.707Z,101425.00
2023-07-18T05:15:23.188Z,101423.00
2023-07-18T05:17:50.414Z,101429.00
2023-07-18T05:20:17.594Z,101434.00
2023-07-18T05:22:45.821Z,101430.00
2023-07-18T05:25:14.775Z,101431.00
2023-07-18T05:27:42.328Z,101428.00
2023-07-18T05:30:28.467Z,101433.00
2023-07-18T05:32:55.544Z,101428.00
2023-07-18T05:35:22.863Z,101435.00
2023-07-18T05:37:49.791Z,101440.00
2023-07-18T05:40:18.386Z,101446.00
2023-07-18T05:42:48.882Z,101437.00
2023-07-18T05:45:16.398Z,101439.00
2023-07-18T05:47:43.734Z,101436.00
2023-07-18T05:50:11.458Z,101444.00
2023-07-18T05:52:38.895Z,101437.00
2023-07-18T05:55:06.765Z,101440.00
2023-07-18T05:57:33.710Z,101439.00
2023-07-18T06:00:00.736Z,101443.00
2023-07-18T06:02:27.744Z,101431.00
2023-07-18T06:04:54.751Z,101435.00
2023-07-18T06:07:24.395Z,101449.00
2023-07-18T06:09:53.415Z,101446.00
2023-07-18T06:12:20.533Z,101441.00
2023-07-18T06:14:47.554Z,101438.00
2023-07-18T06:17:19.904Z,101446.00
2023-07-18T06:19:49.637Z,101444.00
2023-07-18T06:22:16.496Z,101442.00
2023-07-18T06:24:43.334Z,101447.00
2023-07-18T06:27:10.261Z,101456.00
2023-07-18T06:29:37.272Z,101457.00
2023-07-18T06:32:06.658Z,101456.00
2023-07-18T06:34:34.530Z,101464.00
2023-07-18T06:37:03.741Z,101456.00
2023-07-18T06:39:30.879Z,101459.00
2023-07-18T06:41:58.902Z,101458.00
2023-07-18T06:44:26.074Z,101455.00
2023-07-18T06:46:54.229Z,101469.00
2023-07-18T06:49:33.602Z,101461.00
2023-07-18T06:52:00.607Z,101454.00
2023-07-18T06:54:27.483Z,101449.00
2023-07-18T06:56:57.001Z,101448.00
2023-07-18T06:59:25.635Z,101456.00
2023-07-18T07:01:53.168Z,101448.00
2023-07-18T07:04:20.794Z,101449.00
2023-07-18T07:06:48.464Z,101455.00
2023-07-18T07:09:18.156Z,101448.00
2023-07-18T07:11:45.101Z,101448.00
2023-07-18T07:14:13.047Z,101460.00
2023-07-18T07:16:40.729Z,101467.00
2023-07-18T07:19:07.969Z,101468.00
2023-07-18T07:21:35.306Z,101470.00
2023-07-18T07:24:05.120Z,101452.00
2023-07-18T07:26:32.116Z,101452.00
2023-07-18T07:28:59.144Z,101457.00
2023-07-18T07:31:26.269Z,101459.00
2023-07-18T07:33:54.572Z,101462.00
2023-07-18T07:36:22.530Z,101469.00
2023-07-18T07:38:53.167Z,101476.00
2023-07-18T07:41:20.300Z,101465.00
2023-07-18T07:43:50.021Z,101466.00
2023-07-18T07:46:17.328Z,101458.00
2023-07-18T07:48:44.522Z,101473.00
2023-07-18T07:51:18.237Z,101486.00
2023-07-18T07:53:45.373Z,101484.00
2023-07-18T07:56:12.319Z,101476.00
2023-07-18T07:58:39.289Z,101482.00
2023-07-18T08:01:06.231Z,101484.00
2023-07-18T08:03:35.628Z,101489.00
2023-07-18T08:06:02.630Z,101504.00
2023-07-18T08:08:29.553Z,101488.00
2023-07-18T08:10:56.473Z,101482.00
2023-07-18T08:13:25.361Z,101481.00
2023-07-18T08:15:53.345Z,101476.00
2023-07-18T08:18:23.312Z,101464.00
2023-07-18T08:20:50.377Z,101493.00
2023-07-18T08:23:17.396Z,101489.00
2023-07-18T08:25:45.290Z,101472.00
2023-07-18T08:28:12.210Z,101489.00
2023-07-18T08:30:57.377Z,101493.00
2023-07-18T08:33:25.507Z,101477.00
2023-07-18T08:35:52.652Z,101475.00
2023-07-18T08:38:45.074Z,101477.00
2023-07-18T08:41:18.779Z,101488.00
2023-07-18T08:43:49.406Z,101473.00
2023-07-18T08:46:26.007Z,101479.00
2023-07-18T08:48:54.525Z,101484.00
2023-07-18T08:51:23.008Z,101470.00
2023-07-18T08:53:50.253Z,101463.00
2023-07-18T08:56:17.473Z,101472.00
2023-07-18T08:58:50.835Z,101476.00
2023-07-18T09:01:23.610Z,101471.00
2023-07-18T09:03:51.206Z,101458.00
2023-07-18T09:06:26.039Z,101463.00
2023-07-18T09:08:59.131Z,101479.00
2023-07-18T09:11:26.196Z,101452.00
2023-07-18T09:13:58.085Z,101438.00
2023-07-18T09:16:26.226Z,101432.00
2023-07-18T09:19:09.760Z,101439.00
2023-07-18T09:21:37.004Z,101417.00
2023-07-18T09:24:04.038Z,101442.00
2023-07-18T09:26:30.992Z,101443.00
2023-07-18T09:28:58.008Z,101450.00
2023-07-18T09:31:28.202Z,101473.00
2023-07-18T09:33:55.823Z,101472.00
2023-07-18T09:36:29.179Z,101492.00
2023-07-18T09:38:59.344Z,101468.00
2023-07-18T09:41:26.991Z,101473.00
2023-07-18T09:44:00.168Z,101477.00
2023-07-18T09:46:41.630Z,101470.00
2023-07-18T09:49:14.363Z,101497.00
2023-07-18T09:51:45.096Z,101483.00
2023-07-18T09:54:12.801Z,101471.00
2023-07-18T09:56:40.831Z,101470.00
2023-07-18T09:59:09.628Z,101446.00
2023-07-18T10:01:36.641Z,101431.00
2023-07-18T10:04:04.221Z,101414.00
2023-07-18T10:06:32.927Z,101423.00
2023-07-18T10:09:00.311Z,101433.00
2023-07-18T10:11:27.140Z,101425.00
2023-07-18T10:13:56.974Z,101413.00
2023-07-18T10:16:28.047Z,101436.00
2023-07-18T10:18:55.345Z,101438.00
2023-07-18T10:21:33.623Z,101463.00
2023-07-18T10:24:25.693Z,101445.00
2023-07-18T10:26:53.612Z,101464.00
2023-07-18T10:29:20.615Z,101445.00
2023-07-18T10:31:48.242Z,101469.00
2023-07-18T10:34:16.967Z,101459.00
2023-07-18T10:37:01.400Z,101449.00
2023-07-18T10:39:40.207Z,101451.00
2023-07-18T10:42:08.516Z,101430.00
2023-07-18T10:44:39.658Z,101442.00
2023-07-18T10:47:16.646Z,101434.00
2023-07-18T10:49:44.069Z,101412.00
2023-07-18T10:52:10.893Z,101409.00
2023-07-18T10:54:37.788Z,101405.00
2023-07-18T10:57:04.855Z,101387.00
2023-07-18T10:59:31.780Z,101419.00
2023-07-18T11:02:01.990Z,101390.00
2023-07-18T11:04:29.513Z,101387.00
2023-07-18T11:06:57.737Z,101380.00
2023-07-18T11:09:24.582Z,101384.00
2023-07-18T11:11:51.691Z,101375.00
2023-07-18T11:14:19.883Z,101390.00
2023-07-18T11:16:47.885Z,101422.00
2023-07-18T11:19:17.542Z,101412.00
2023-07-18T11:21:44.398Z,101400.00
2023-07-18T11:24:11.285Z,101387.00
2023-07-18T11:26:38.150Z,101383.00
2023-07-18T11:29:05.177Z,101368.00
2023-07-18T11:34:03.542Z,101370.00
2023-07-18T11:36:36.860Z,101352.00
2023-07-18T11:39:05.362Z,101349.00
2023-07-18T11:41:36.003Z,101341.00
2023-07-18T11:44:04.177Z,101347.00
2023-07-18T11:46:45.168Z,101339.00
2023-07-18T11:49:18.906Z,101341.00
2023-07-18T11:51:45.845Z,101365.00
2023-07-18T11:54:12.832Z,101382.00
2023-07-18T11:56:39.756Z,101373.00
2023-07-18T11:59:06.575Z,101383.00
2023-07-18T12:01:37.297Z,101403.00
2023-07-18T12:04:12.722Z,101387.00
2023-07-18T12:06:40.206Z,101398.00
2023-07-18T12:09:07.064Z,101392.00
2023-07-18T12:11:35.007Z,101377.00
2023-07-18T12:14:03.511Z,101352.00
2023-07-18T12:16:30.442Z,101392.00
2023-07-18T12:18:57.327Z,101378.00
2023-07-18T12:21:24.214Z,101366.00
2023-07-18T12:23:51.103Z,101384.00
2023-07-18T12:26:17.942Z,101375.00
2023-07-18T12:28:45.358Z,101369.00
2023-07-18T12:31:13.003Z,101374.00
2023-07-18T12:33:40.020Z,101375.00
2023-07-18T12:36:06.880Z,101372.00
2023-07-18T12:38:33.698Z,101367.00
2023-07-18T12:41:00.553Z,101378.00
2023-07-18T12:43:27.406Z,101374.00
2023-07-18T12:45:55.149Z,101378.00
2023-07-18T12:48:21.959Z,101381.00
2023-07-18T12:50:48.848Z,101381.00
2023-07-18T12:53:15.630Z,101382.00
2023-07-18T12:55:42.452Z,101389.00
2023-07-18T12:58:09.333Z,101379.00
2023-07-18T13:00:36.212Z,101381.00
2023-07-18T13:03:03.090Z,101363.00
2023-07-18T13:05:30.232Z,101367.00
2023-07-18T13:07:57.036Z,101352.00
2023-07-18T13:10:23.865Z,101337.00
2023-07-18T13:12:50.837Z,101339.00
2023-07-18T13:15:18.840Z,101341.00
2023-07-18T13:17:47.534Z,101346.00
2023-07-18T13:20:14.518Z,101341.00
2023-07-18T13:22:41.364Z,101356.00
2023-07-18T13:25:08.488Z,101367.00
2023-07-18T13:27:35.289Z,101356.00
2023-07-18T13:30:02.155Z,101383.00
2023-07-18T13:32:29.107Z,101374.00
2023-07-18T13:34:55.947Z,101357.00
2023-07-18T13:37:23.161Z,101349.00
2023-07-18T13:39:50.004Z,101348.00
2023-07-18T13:42:16.797Z,101352.00
2023-07-18T13:44:43.685Z,101346.00
2023-07-18T13:47:10.582Z,101327.00
2023-07-18T13:49:50.069Z,101314.00
2023-07-18T13:52:17.294Z,101339.00
2023-07-18T13:54:44.162Z,101335.00
2023-07-18T13:57:11.274Z,101329.00
2023-07-18T13:59:38.070Z,101323.00
2023-07-18T14:02:05.040Z,101323.00
2023-07-18T14:04:32.177Z,101355.00
2023-07-18T14:06:59.685Z,101351.00
2023-07-18T14:09:26.568Z,101351.00
2023-07-18T14:11:53.407Z,101323.00
2023-07-18T14:14:20.230Z,101306.00
2023-07-18T14:16:47.168Z,101310.00
2023-07-18T14:19:14.866Z,101321.00
2023-07-18T14:21:41.783Z,101312.00
2023-07-18T14:24:08.665Z,101306.00
2023-07-18T14:26:35.524Z,101306.00
2023-07-18T14:29:02.364Z,101291.00
2023-07-18T14:31:29.249Z,101292.00
2023-07-18T14:34:05.468Z,101315.00
2023-07-18T14:36:36.544Z,101309.00
2023-07-18T14:39:04.621Z,101315.00
2023-07-18T14:41:31.681Z,101317.00
2023-07-18T14:43:59.114Z,101316.00
2023-07-18T14:46:26.145Z,101320.00
2023-07-18T14:48:53.840Z,101318.00
2023-07-18T14:51:21.432Z,101297.00
2023-07-18T14:53:48.572Z,101321.00
2023-07-18T14:56:15.550Z,101341.00
2023-07-18T14:58:43.409Z,101315.00
2023-07-18T15:01:10.456Z,101310.00
2023-07-18T15:03:38.360Z,101318.00
2023-07-18T15:06:05.924Z,101317.00
2023-07-18T15:08:34.896Z,101314.00
2023-07-18T15:11:01.936Z,101308.00
2023-07-18T15:13:29.050Z,101307.00
2023-07-18T15:15:56.033Z,101300.00
2023-07-18T15:18:23.614Z,101300.00
2023-07-18T15:20:55.758Z,101305.00
2023-07-18T15:23:24.859Z,101292.00
2023-07-18T15:25:52.181Z,101301.00
2023-07-18T15:28:19.044Z,101305.00
2023-07-18T15:30:45.892Z,101296.00
2023-07-18T15:35:47.010Z,101288.00
2023-07-18T15:38:21.436Z,101293.00
2023-07-18T15:40:48.805Z,101290.00
2023-07-18T15:43:15.711Z,101285.00
2023-07-18T15:45:48.195Z,101286.00
2023-07-18T15:48:15.574Z,101287.00
2023-07-18T15:50:42.554Z,101277.00
2023-07-18T15:53:12.643Z,101261.00
2023-07-18T15:55:39.455Z,101264.00
2023-07-18T15:58:06.353Z,101275.00
2023-07-18T16:00:33.494Z,101262.00
2023-07-18T16:03:02.885Z,101274.00
2023-07-18T16:05:29.857Z,101282.00
2023-07-18T16:07:56.931Z,101295.00
2023-07-18T16:10:24.004Z,101259.00
2023-07-18T16:12:51.646Z,101264.00
2023-07-18T16:15:18.627Z,101288.00
2023-07-18T16:17:45.904Z,101291.00
2023-07-18T16:20:14.253Z,101263.00
2023-07-18T16:22:52.019Z,101268.00
2023-07-18T16:25:18.938Z,101272.00
2023-07-18T16:27:49.667Z,101271.00
2023-07-18T16:30:19.874Z,101257.00
2023-07-18T16:32:47.015Z,101250.00
2023-07-18T16:35:14.212Z,101247.00
2023-07-18T16:37:41.874Z,101258.00
2023-07-18T16:40:10.815Z,101238.00
2023-07-18T16:42:40.617Z,101233.00
2023-07-18T16:45:10.400Z,101233.00
2023-07-18T16:47:37.297Z,101236.00
2023-07-18T16:50:04.501Z,101233.00
2023-07-18T16:52:31.444Z,101222.00
2023-07-18T16:54:58.263Z,101229.00
2023-07-18T16:57:25.577Z,101205.00
2023-07-18T16:59:52.440Z,101216.00
2023-07-18T17:02:19.293Z,101205.00
2023-07-18T17:04:46.627Z,101224.00
2023-07-18T17:07:13.503Z,101211.00
2023-07-18T17:09:40.578Z,101202.00
2023-07-18T17:12:08.112Z,101211.00
2023-07-18T17:14:35.042Z,101192.00
2023-07-18T17:17:02.774Z,101187.00
2023-07-18T17:19:29.615Z,101193.00
2023-07-18T17:21:56.480Z,101179.00
2023-07-18T17:24:23.339Z,101190.00
2023-07-18T17:26:50.187Z,101179.00
2023-07-18T17:29:18.920Z,101178.00
2023-07-18T17:31:46.194Z,101167.00
2023-07-18T17:34:13.243Z,101171.00
2023-07-18T17:36:40.721Z,101171.00
2023-07-18T17:39:08.939Z,101171.00
2023-07-18T17:41:36.065Z,101154.00
2023-07-18T17:44:04.705Z,101153.00
2023-07-18T17:46:31.670Z,101157.00
2023-07-18T17:48:58.558Z,101147.00
2023-07-18T17:51:25.768Z,101141.00
2023-07-18T17:53:54.771Z,101149.00
2023-07-18T17:56:25.912Z,101141.00
2023-07-18T17:58:52.947Z,101132.00
2023-07-18T18:01:20.287Z,101133.00
2023-07-18T18:03:47.413Z,101128.00
2023-07-18T18:06:14.305Z,101130.00
2023-07-18T18:08:41.871Z,101129.00
2023-07-18T18:11:08.915Z,101123.00
2023-07-18T18:13:35.884Z,101122.00
2023-07-18T18:16:08.981Z,101125.00
2023-07-18T18:18:36.918Z,101117.00
2023-07-18T18:21:04.287Z,101111.00
2023-07-18T18:26:01.537Z,101100.00
2023-07-18T18:28:28.478Z,101101.00
2023-07-18T18:30:55.361Z,101094.00
2023-07-18T18:33:22.588Z,101099.00
2023-07-18T18:35:52.095Z,101092.00
2023-07-18T18:38:18.887Z,101091.00
2023-07-18T18:40:45.867Z,101081.00
2023-07-18T18:43:12.981Z,101079.00
2023-07-18T18:45:39.928Z,101067.00
2023-07-18T18:48:08.037Z,101074.00
2023-07-18T18:50:34.980Z,101072.00
2023-07-18T18:53:07.645Z,101066.00
2023-07-18T18:55:36.309Z,101062.00
2023-07-18T19:01:04.760Z,101028.00
2023-07-18T19:03:31.675Z,101032.00
2023-07-18T19:05:58.635Z,101053.00
2023-07-18T19:08:25.420Z,101073.00
2023-07-18T19:11:04.973Z,101073.00
2023-07-18T19:13:35.274Z,101064.00
2023-07-18T19:16:02.387Z,101059.00
2023-07-18T19:18:30.203Z,101074.00
2023-07-18T19:20:57.026Z,101071.00
2023-07-18T19:23:24.238Z,101070.00
2023-07-18T19:25:51.724Z,101062.00
2023-07-18T19:28:19.161Z,101065.00
2023-07-18T19:30:46.083Z,101039.00
2023-07-18T19:33:13.030Z,101039.00
2023-07-18T19:35:39.929Z,101030.00
2023-07-18T19:38:07.066Z,101027.00
2023-07-18T19:40:33.884Z,101051.00
2023-07-18T19:43:04.122Z,101046.00
2023-07-18T19:45:31.358Z,101054.00
2023-07-18T19:47:58.344Z,101054.00
2023-07-18T19:50:25.934Z,101054.00
2023-07-18T19:52:52.757Z,101053.00
2023-07-18T19:55:20.239Z,101056.00
2023-07-18T19:57:48.926Z,101048.00
2023-07-18T20:00:16.624Z,101054.00
2023-07-18T20:02:43.494Z,101043.00
2023-07-18T20:05:10.570Z,101047.00
2023-07-18T20:07:40.306Z,101046.00
2023-07-18T20:10:07.779Z,101044.00
2023-07-18T20:12:34.901Z,101037.00
2023-07-18T20:15:02.286Z,101040.00
2023-07-18T20:17:29.214Z,101032.00
2023-07-18T20:19:56.441Z,101030.00
2023-07-18T20:22:26.185Z,101030.00
2023-07-18T20:24:53.150Z,101033.00
2023-07-18T20:27:20.224Z,101044.00
2023-07-18T20:29:47.090Z,101033.00
2023-07-18T20:32:13.942Z,101033.00
2023-07-18T20:34:41.229Z,101036.00
2023-07-18T20:37:11.193Z,101032.00
2023-07-18T20:39:39.651Z,101037.00
2023-07-18T20:42:10.493Z,101027.00
2023-07-18T20:44:38.124Z,101038.00
2023-07-18T20:47:05.565Z,101039.00
2023-07-18T20:49:33.146Z,101034.00
2023-07-18T20:52:00.916Z,101034.00
2023-07-18T20:54:29.864Z,101024.00
2023-07-18T20:56:56.796Z,101026.00
2023-07-18T20:59:23.774Z,101033.00
2023-07-18T21:01:50.678Z,101038.00
2023-07-18T21:04:17.675Z,101046.00
2023-07-18T21:06:45.113Z,101048.00
2023-07-18T21:09:11.937Z,101045.00
2023-07-18T21:11:39.703Z,101043.00
2023-07-18T21:14:06.993Z,101045.00
2023-07-18T21:16:40.570Z,101049.00
2023-07-18T21:19:07.749Z,101048.00
2023-07-18T21:21:35.032Z,101034.00
2023-07-18T21:24:01.811Z,101040.00
2023-07-18T21:26:28.664Z,101041.00
2023-07-18T21:29:04.818Z,101040.00
2023-07-18T21:31:33.360Z,101049.00
2023-07-18T21:34:00.252Z,101044.00
2023-07-18T21:36:27.040Z,101050.00
2023-07-18T21:38:53.812Z,101051.00
2023-07-18T21:41:22.247Z,101054.00
2023-07-18T21:43:49.273Z,101046.00
2023-07-18T21:46:16.411Z,101049.00
2023-07-18T21:48:43.257Z,101056.00
2023-07-18T21:51:10.077Z,101065.00
2023-07-18T21:53:36.905Z,101046.00
2023-07-18T21:56:03.985Z,101052.00
2023-07-18T21:58:30.828Z,101043.00
2023-07-18T22:00:57.588Z,101051.00
2023-07-18T22:03:24.462Z,101047.00
2023-07-18T22:05:51.373Z,101066.00
2023-07-18T22:08:18.139Z,101059.00
2023-07-18T22:10:45.052Z,101051.00
2023-07-18T22:13:12.345Z,101047.00
2023-07-18T22:15:39.460Z,101059.00
2023-07-18T22:18:24.622Z,101062.00
2023-07-18T22:20:53.421Z,101053.00
2023-07-18T22:23:20.218Z,101048.00
2023-07-18T22:25:52.837Z,101056.00
2023-07-18T22:28:27.396Z,101052.00
2023-07-18T22:30:54.683Z,101043.00
2023-07-18T22:33:21.623Z,101053.00
2023-07-18T22:35:48.429Z,101051.00
2023-07-18T22:38:15.213Z,101061.00
2023-07-18T22:40:42.014Z,101057.00
2023-07-18T22:43:08.898Z,101042.00
2023-07-18T22:45:35.875Z,101045.00
2023-07-18T22:48:09.104Z,101054.00
2023-07-18T22:50:35.903Z,101056.00
2023-07-18T22:53:05.504Z,101053.00
2023-07-18T22:55:33.502Z,101043.00
2023-07-18T22:58:00.332Z,101044.00
2023-07-18T23:00:27.250Z,101041.00
2023-07-18T23:02:54.196Z,101041.00
2023-07-18T23:05:21.130Z,101041.00
2023-07-18T23:07:47.906Z,101041.00
2023-07-18T23:10:14.717Z,101041.00
2023-07-18T23:12:41.505Z,101040.00
2023-07-18T23:15:08.943Z,101035.00
2023-07-18T23:17:36.444Z,101033.00
2023-07-18T23:20:04.167Z,101026.00
2023-07-18T23:22:31.050Z,101030.00
2023-07-18T23:24:58.422Z,101022.00
2023-07-18T23:27:25.202Z,101016.00
2023-07-18T23:29:52.018Z,101015.00
2023-07-18T23:32:18.862Z,101013.00
2023-07-18T23:34:45.776Z,101004.00
2023-07-18T23:37:12.735Z,101012.00
2023-07-18T23:39:39.569Z,101010.00
2023-07-18T23:42:06.754Z,101001.00
2023-07-18T23:44:33.906Z,100991.00
2023-07-18T23:47:00.699Z,100994.00
2023-07-18T23:49:27.456Z,100989.00
2023-07-18T23:51:54.248Z,100997.00
2023-07-18T23:54:21.056Z,101000.00
2023-07-18T23:56:47.899Z,100993.00
2023-07-18T23:59:14.711Z,100991.00
